Time;durP1;ratioP1;P1;durP2;ratioP2;P2;SDS_P1;SDS_P2;PMS_P1;PMS_P2;Temp;Humidity;BMP_temperature;BMP_pressure;BME280_temperature;BME280_humidity;BME280_pressure;Samples;Min_cycle;Max_cycle;Signal;HPM_P1;HPM_P2
2023/06/25 00:02:58;;;;;;;4.10;2.58;;;;;;;18.17;57.10;100371.97;10348352;28;20053;-84
2023/06/25 00:08:00;;;;;;;6.38;3.00;;;;;;;18.25;56.70;100366.91;10371716;28;20045;-86
2023/06/25 00:13:02;;;;;;;4.32;2.72;;;;;;;18.25;57.18;100358.97;10369615;28;20619;-86
2023/06/25 00:18:04;;;;;;;7.93;2.97;;;;;;;18.25;57.02;100356.31;10373561;28;20089;-86
2023/06/25 00:23:06;;;;;;;4.65;2.90;;;;;;;18.22;57.01;100345.97;10375469;28;20046;-85
2023/06/25 00:28:09;;;;;;;4.97;3.05;;;;;;;17.92;57.13;100347.69;10376279;28;20046;-85
2023/06/25 00:33:11;;;;;;;4.90;2.83;;;;;;;17.62;58.06;100348.44;10376376;28;20049;-86
2023/06/25 00:38:13;;;;;;;5.95;3.00;;;;;;;17.68;57.94;100347.91;10377082;28;21010;-85
2023/06/25 00:43:15;;;;;;;5.45;3.05;;;;;;;17.79;57.58;100338.13;10377161;28;20049;-85
2023/06/25 00:48:21;;;;;;;4.88;2.95;;;;;;;17.50;58.02;100344.16;10379166;28;20038;-85
2023/06/25 00:53:24;;;;;;;4.60;3.03;;;;;;;17.48;58.63;100344.28;10375911;28;20041;-85
2023/06/25 00:58:25;;;;;;;5.97;2.80;;;;;;;17.57;58.39;100338.22;10380435;28;20053;-85
2023/06/25 01:03:38;;;;;;;6.00;2.97;;;;;;;17.58;58.84;100339.91;10399726;28;20050;-85
2023/06/25 01:08:50;;;;;;;5.20;2.85;;;;;;;17.54;58.79;100337.63;10411311;28;20049;-85
2023/06/25 01:13:52;;;;;;;5.50;3.00;;;;;;;17.46;58.45;100335.63;10407915;28;20132;-85
2023/06/25 01:18:58;;;;;;;5.05;3.17;;;;;;;17.54;58.09;100333.19;10404393;28;20091;-86
2023/06/25 01:24:06;;;;;;;6.32;3.25;;;;;;;17.54;57.94;100327.91;10382698;28;20060;-84
2023/06/25 01:29:09;;;;;;;4.72;3.00;;;;;;;17.53;58.13;100325.38;10400943;28;20045;-85
2023/06/25 01:34:11;;;;;;;5.65;3.15;;;;;;;17.42;58.38;100328.91;10418688;28;20512;-85
2023/06/25 01:39:12;;;;;;;5.00;3.15;;;;;;;17.30;58.81;100335.13;10395165;28;20057;-86
2023/06/25 01:44:18;;;;;;;4.95;2.95;;;;;;;17.23;58.95;100333.97;10418254;28;20049;-85
2023/06/25 01:49:23;;;;;;;5.18;2.90;;;;;;;17.17;59.03;100329.19;10418861;28;20040;-85
2023/06/25 01:54:33;;;;;;;6.03;2.83;;;;;;;17.13;59.07;100317.19;10416349;28;20667;-86
2023/06/25 01:59:35;;;;;;;5.60;3.08;;;;;;;17.05;59.11;100314.31;10418953;28;20119;-86
2023/06/25 02:04:37;;;;;;;6.80;2.92;;;;;;;17.09;59.08;100310.47;10402996;28;20049;-85
2023/06/25 02:09:39;;;;;;;4.80;2.75;;;;;;;17.03;59.14;100317.09;10403544;28;20052;-86
2023/06/25 02:14:41;;;;;;;5.05;3.03;;;;;;;16.90;59.36;100318.16;10403988;28;20127;-86
2023/06/25 02:19:43;;;;;;;5.30;2.97;;;;;;;16.84;59.26;100313.38;10407602;28;20127;-85
2023/06/25 02:24:44;;;;;;;4.68;2.85;;;;;;;16.89;59.35;100303.28;10424450;28;20041;-86
2023/06/25 02:29:47;;;;;;;4.95;2.80;;;;;;;16.81;59.52;100303.06;10397708;28;20045;-86
2023/06/25 02:34:49;;;;;;;5.80;3.22;;;;;;;16.64;59.94;100304.41;10387473;28;20055;-85
2023/06/25 02:39:51;;;;;;;5.15;3.22;;;;;;;16.66;59.82;100307.75;10409269;28;20471;-86
2023/06/25 02:44:53;;;;;;;4.72;2.97;;;;;;;16.64;59.63;100300.91;10385284;28;21009;-86
2023/06/25 02:49:55;;;;;;;5.53;3.30;;;;;;;16.63;59.89;100304.53;10403012;28;20413;-85
2023/06/25 02:54:57;;;;;;;5.63;2.83;;;;;;;16.57;59.69;100302.38;10406529;28;20052;-86
2023/06/25 03:00:00;;;;;;;4.57;2.90;;;;;;;16.53;59.82;100293.84;10445589;28;20060;-86
2023/06/25 03:05:02;;;;;;;4.72;2.80;;;;;;;16.52;59.82;100289.53;10406986;28;20372;-86
2023/06/25 03:10:05;;;;;;;5.03;3.20;;;;;;;16.50;59.77;100293.25;10410003;28;20067;-86
2023/06/25 03:15:08;;;;;;;4.82;3.03;;;;;;;16.36;59.72;100293.44;10434019;28;20458;-85
2023/06/25 03:20:12;;;;;;;6.32;3.20;;;;;;;16.26;60.21;100292.47;10397852;28;20104;-85
2023/06/25 03:25:15;;;;;;;5.32;2.95;;;;;;;15.80;60.99;100309.19;10413734;28;20045;-87
2023/06/25 03:30:22;;;;;;;6.90;3.08;;;;;;;15.94;61.12;100305.47;10396913;28;20498;-86
2023/06/25 03:35:24;;;;;;;5.82;2.90;;;;;;;16.17;60.53;100300.16;10400527;28;20090;-86
2023/06/25 03:40:27;;;;;;;5.65;3.00;;;;;;;16.17;60.50;100297.50;10392536;28;20180;-85
2023/06/25 03:45:29;;;;;;;4.35;2.88;;;;;;;16.24;60.44;100290.78;10420464;28;20046;-86
2023/06/25 03:50:31;;;;;;;5.00;2.92;;;;;;;16.35;60.36;100289.97;10396679;28;20072;-85
2023/06/25 03:55:33;;;;;;;5.00;2.72;;;;;;;16.51;60.17;100293.09;10415915;28;20051;-86
2023/06/25 04:00:36;;;;;;;5.82;3.10;;;;;;;16.54;60.03;100292.03;10379964;28;20430;-85
2023/06/25 04:05:39;;;;;;;4.60;3.10;;;;;;;16.63;60.06;100291.31;10403698;28;20102;-86
2023/06/25 04:10:41;;;;;;;4.95;2.80;;;;;;;17.41;59.64;100279.63;10401742;28;20045;-85
2023/06/25 04:15:43;;;;;;;4.93;2.97;;;;;;;19.85;55.13;100282.78;10402748;28;20053;-86
2023/06/25 04:20:45;;;;;;;4.28;2.70;;;;;;;21.82;51.16;100262.56;10420678;28;20036;-86
2023/06/25 04:25:47;;;;;;;5.07;2.78;;;;;;;23.43;48.31;100256.13;10419428;28;20489;-86
2023/06/25 04:30:49;;;;;;;5.65;3.00;;;;;;;24.99;45.83;100251.94;10403830;28;20153;-86
2023/06/25 04:35:51;;;;;;;6.05;2.88;;;;;;;26.41;43.23;100251.91;10404038;28;20049;-86
2023/06/25 04:40:53;;;;;;;4.03;2.78;;;;;;;27.56;41.11;100255.53;10402190;28;20465;-85
2023/06/25 04:45:56;;;;;;;6.00;3.33;;;;;;;28.50;39.73;100242.41;10384498;28;20049;-86
2023/06/25 04:50:58;;;;;;;4.93;2.88;;;;;;;29.22;38.09;100242.66;10398362;28;20510;-86
2023/06/25 04:56:00;;;;;;;3.47;2.28;;;;;;;30.01;36.61;100248.97;10405675;28;20037;-86
2023/06/25 05:01:02;;;;;;;4.13;2.35;;;;;;;30.19;35.41;100241.03;10386390;28;20415;-86
2023/06/25 05:06:04;;;;;;;4.90;2.50;;;;;;;30.25;35.48;100248.31;10401165;28;20055;-86
2023/06/25 05:11:37;;;;;;;4.50;2.40;;;;;;;30.89;31.80;100242.91;10396091;28;20042;-85
2023/06/25 05:16:50;;;;;;;4.15;2.58;;;;;;;31.15;32.27;100240.06;10419746;28;20127;-86
2023/06/25 05:21:57;;;;;;;5.05;2.60;;;;;;;31.44;31.73;100242.16;10401577;28;20054;-86
2023/06/25 05:27:01;;;;;;;4.00;2.55;;;;;;;31.98;31.76;100244.25;10424313;28;20041;-86
2023/06/25 05:32:05;;;;;;;6.35;2.65;;;;;;;30.97;32.36;100244.50;10423896;28;20060;-86
2023/06/25 05:37:13;;;;;;;4.18;2.60;;;;;;;28.14;35.32;100255.19;10405420;28;20048;-86
2023/06/25 05:42:16;;;;;;;4.18;2.50;;;;;;;26.18;38.38;100255.69;10402692;28;21001;-87
2023/06/25 05:47:21;;;;;;;4.53;2.90;;;;;;;25.32;39.71;100256.06;10418625;28;20041;-86
2023/06/25 05:52:23;;;;;;;3.75;2.50;;;;;;;24.41;40.93;100262.22;10402614;28;20144;-86
2023/06/25 05:57:27;;;;;;;4.47;2.70;;;;;;;23.82;42.22;100260.81;10416538;28;20464;-85
2023/06/25 06:02:30;;;;;;;4.93;3.00;;;;;;;23.63;42.59;100266.47;10402685;28;20052;-86
2023/06/25 06:07:38;;;;;;;4.90;2.90;;;;;;;23.59;43.24;100263.31;10418959;28;20049;-86
2023/06/25 06:12:42;;;;;;;4.78;3.20;;;;;;;23.69;43.16;100258.66;10389083;28;20053;-86
2023/06/25 06:17:44;;;;;;;4.07;2.75;;;;;;;23.72;43.21;100260.97;10427982;28;20502;-86
2023/06/25 06:22:49;;;;;;;5.22;2.92;;;;;;;23.69;43.62;100265.81;10407906;28;20056;-86
2023/06/25 06:27:56;;;;;;;4.55;2.67;;;;;;;23.81;43.67;100254.63;10419684;28;20051;-85
2023/06/25 06:33:06;;;;;;;4.25;2.72;;;;;;;23.97;43.64;100256.44;10418893;28;20049;-86
2023/06/25 06:38:12;;;;;;;5.47;2.80;;;;;;;24.54;42.25;100244.59;10426988;28;20100;-86
2023/06/25 06:43:16;;;;;;;7.40;3.10;;;;;;;25.22;41.56;100247.44;10397550;28;20068;-86
2023/06/25 06:48:19;;;;;;;4.30;2.85;;;;;;;25.55;40.73;100246.19;10398052;28;20127;-88
2023/06/25 06:53:28;;;;;;;4.90;3.10;;;;;;;26.12;38.94;100248.41;10399670;28;20800;-87
2023/06/25 06:58:30;;;;;;;5.00;3.05;;;;;;;27.83;38.89;100238.66;10408123;28;20045;-87
2023/06/25 07:03:37;;;;;;;4.60;2.83;;;;;;;29.50;35.30;100223.69;10400259;28;20051;-87
2023/06/25 07:08:39;;;;;;;5.00;3.13;;;;;;;30.61;34.93;100226.22;10395234;28;20551;-87
2023/06/25 07:13:47;;;;;;;6.72;2.90;;;;;;;31.58;30.76;100221.28;10410735;28;20049;-87
2023/06/25 07:18:50;;;;;;;4.40;2.72;;;;;;;31.70;32.72;100226.81;10413634;28;20041;-87
2023/06/25 07:23:52;;;;;;;4.35;2.92;;;;;;;32.13;32.84;100217.66;10414617;28;20033;-87
2023/06/25 07:28:56;;;;;;;5.28;2.80;;;;;;;32.68;30.79;100225.78;10415968;28;20052;-87
2023/06/25 07:34:00;;;;;;;4.93;2.83;;;;;;;31.62;31.40;100219.78;10398039;28;20044;-86
2023/06/25 07:39:06;;;;;;;3.83;2.38;;;;;;;32.10;30.24;100222.72;10397477;28;20049;-87
2023/06/25 07:44:08;;;;;;;4.22;2.47;;;;;;;31.79;30.54;100220.91;10394051;28;20044;-87
2023/06/25 07:49:34;;;;;;;4.57;2.65;;;;;;;31.93;30.67;100216.19;10407331;28;20103;-87
2023/06/25 07:54:37;;;;;;;5.15;2.85;;;;;;;31.77;30.33;100205.94;10413543;28;20402;-86
2023/06/25 07:59:41;;;;;;;3.67;2.45;;;;;;;32.07;30.55;100206.91;10377216;28;20481;-87
2023/06/25 08:04:56;;;;;;;3.80;2.40;;;;;;;32.01;29.50;100194.28;10413703;28;20042;-87
2023/06/25 08:10:02;;;;;;;3.38;2.20;;;;;;;31.86;29.57;100196.50;10411077;28;20096;-86
2023/06/25 08:15:05;;;;;;;5.60;2.42;;;;;;;31.35;30.13;100194.00;10407110;28;20041;-87
2023/06/25 08:20:08;;;;;;;4.45;2.70;;;;;;;31.58;30.52;100194.25;10404473;28;20033;-86
2023/06/25 08:25:23;;;;;;;4.60;2.50;;;;;;;32.50;29.07;100190.63;10407895;28;20055;-87
2023/06/25 08:30:26;;;;;;;3.03;2.00;;;;;;;33.01;29.14;100188.28;10418542;28;20049;-87
2023/06/25 08:35:28;;;;;;;3.70;2.38;;;;;;;33.08;29.45;100178.19;10378360;28;20053;-84
2023/06/25 08:40:31;;;;;;;4.60;2.35;;;;;;;33.04;28.74;100182.41;10402807;28;20056;-86
2023/06/25 08:45:37;;;;;;;4.32;2.38;;;;;;;32.48;28.37;100180.03;10396037;28;20052;-86
2023/06/25 08:51:00;;;;;;;3.75;2.15;;;;;;;33.02;28.47;100171.78;10414630;28;20079;-86
2023/06/25 08:56:05;;;;;;;3.67;2.50;;;;;;;32.84;28.28;100162.88;10409019;28;20394;-86
2023/06/25 09:01:08;;;;;;;4.05;2.20;;;;;;;32.76;28.63;100158.59;10401581;28;20046;-86
2023/06/25 09:06:15;;;;;;;3.45;2.20;;;;;;;32.58;27.69;100147.81;10410584;28;20053;-85
2023/06/25 09:11:18;;;;;;;3.70;2.35;;;;;;;32.64;28.19;100137.94;10411654;28;20084;-86
2023/06/25 09:16:21;;;;;;;3.20;1.95;;;;;;;33.38;27.64;100134.72;10421641;28;20634;-86
2023/06/25 09:21:23;;;;;;;3.38;1.98;;;;;;;32.46;28.20;100132.53;10402575;28;20064;-86
2023/06/25 09:26:29;;;;;;;3.35;2.10;;;;;;;32.66;26.76;100136.66;10402851;28;20053;-86
2023/06/25 09:31:36;;;;;;;3.53;2.20;;;;;;;32.58;25.51;100128.84;10388898;28;20042;-86
2023/06/25 09:36:38;;;;;;;3.20;2.00;;;;;;;32.72;26.67;100126.78;10403090;28;20044;-86
2023/06/25 09:41:42;;;;;;;3.10;1.90;;;;;;;33.36;25.74;100109.72;10420463;28;20068;-86
2023/06/25 09:46:48;;;;;;;4.95;2.20;;;;;;;33.14;25.27;100105.94;10402336;28;20053;-86
2023/06/25 09:52:08;;;;;;;3.33;2.00;;;;;;;32.60;24.94;100113.19;10409143;28;20123;-86
2023/06/25 09:57:16;;;;;;;3.13;1.80;;;;;;;33.00;24.69;100108.84;10406623;28;20138;-86
2023/06/25 10:02:22;;;;;;;3.85;1.90;;;;;;;32.57;24.81;100108.25;10380935;28;20053;-87
2023/06/25 10:07:26;;;;;;;3.85;2.00;;;;;;;32.76;25.68;100096.28;10378861;28;20072;-87
2023/06/25 10:12:33;;;;;;;3.50;1.98;;;;;;;33.31;24.17;100082.50;10378155;28;20037;-87
2023/06/25 10:17:51;;;;;;;3.03;1.80;;;;;;;33.11;23.19;100082.84;10387825;28;20049;-86
2023/06/25 10:23:12;;;;;;;3.07;1.83;;;;;;;33.18;24.55;100075.44;10380834;28;20051;-86
2023/06/25 10:28:14;;;;;;;3.10;1.90;;;;;;;33.25;24.96;100073.41;10377116;28;20049;-87
2023/06/25 10:33:17;;;;;;;3.13;1.90;;;;;;;32.74;24.49;100055.06;10374521;28;20141;-86
2023/06/25 10:38:24;;;;;;;5.18;2.20;;;;;;;32.28;25.46;100049.47;10377159;28;20053;-85
2023/06/25 10:43:27;;;;;;;3.15;1.90;;;;;;;32.40;25.91;100042.22;10375886;28;20049;-85
2023/06/25 10:48:31;;;;;;;3.38;2.05;;;;;;;32.34;26.16;100048.56;10400582;28;20093;-85
2023/06/25 10:53:37;;;;;;;3.35;1.98;;;;;;;31.78;26.17;100043.44;10419328;28;20261;-86
2023/06/25 10:58:41;;;;;;;4.00;2.13;;;;;;;31.44;26.27;100034.03;10394075;28;20053;-86
2023/06/25 11:03:46;;;;;;;3.15;2.00;;;;;;;31.58;26.46;100037.44;10391376;28;20143;-86
2023/06/25 11:08:53;;;;;;;2.97;1.88;;;;;;;31.26;26.20;100023.19;10412964;28;20079;-85
2023/06/25 11:14:00;;;;;;;3.00;1.83;;;;;;;31.62;26.20;100022.41;10375406;28;20056;-84
2023/06/25 11:19:02;;;;;;;3.20;2.08;;;;;;;31.08;25.70;100019.63;10411785;28;20033;-85
2023/06/25 11:24:07;;;;;;;3.50;2.10;;;;;;;30.65;26.87;100014.16;10394740;28;20045;-86
2023/06/25 11:29:11;;;;;;;3.28;1.75;;;;;;;30.95;26.10;100003.50;10415099;28;20045;-84
2023/06/25 11:34:25;;;;;;;3.90;2.00;;;;;;;30.59;25.63;100012.31;10408919;28;20049;-85
2023/06/25 11:39:28;;;;;;;4.13;2.10;;;;;;;30.51;26.10;100002.63;10378891;28;20053;-85
2023/06/25 11:44:31;;;;;;;3.38;1.95;;;;;;;30.54;26.13;99991.38;10413195;28;20516;-85
2023/06/25 11:49:34;;;;;;;3.50;2.10;;;;;;;30.77;25.78;99998.03;10396033;28;20045;-86
2023/06/25 11:54:36;;;;;;;3.83;2.15;;;;;;;30.65;26.05;99987.16;10419163;28;20048;-87
2023/06/25 11:59:41;;;;;;;4.20;2.10;;;;;;;30.67;25.79;99988.59;10401012;28;20143;-86
2023/06/25 12:04:43;;;;;;;3.53;1.90;;;;;;;30.82;26.20;99972.06;10410896;28;20045;-84
2023/06/25 12:09:46;;;;;;;3.22;1.85;;;;;;;30.91;26.19;99980.69;10367668;28;20049;-84
2023/06/25 12:14:56;;;;;;;3.58;1.90;;;;;;;30.92;25.45;99966.13;10386434;28;20694;-86
2023/06/25 12:19:59;;;;;;;3.55;1.95;;;;;;;31.19;26.40;99967.56;10409642;28;20042;-86
2023/06/25 12:25:00;;;;;;;4.35;2.03;;;;;;;31.37;25.94;99964.88;10397760;28;20056;-86
2023/06/25 12:30:07;;;;;;;3.42;1.90;;;;;;;31.35;25.02;99961.56;10396848;28;20049;-86
2023/06/25 12:35:10;;;;;;;3.85;2.20;;;;;;;31.31;24.80;99950.34;10396459;28;20072;-86
2023/06/25 12:40:12;;;;;;;3.22;2.13;;;;;;;31.21;25.35;99941.16;10418743;28;20526;-86
2023/06/25 12:45:17;;;;;;;4.18;1.80;;;;;;;31.14;25.39;99933.13;10394097;28;20075;-84
2023/06/25 12:50:20;;;;;;;3.80;2.10;;;;;;;31.11;25.53;99932.75;10396823;28;20481;-84
2023/06/25 12:55:22;;;;;;;3.28;1.98;;;;;;;31.00;25.56;99931.59;10400260;28;20604;-84
2023/06/25 13:00:25;;;;;;;3.95;2.00;;;;;;;31.06;25.09;99927.16;10418091;28;20057;-84
2023/06/25 13:05:49;;;;;;;3.70;2.10;;;;;;;31.08;24.84;99930.47;10418293;28;20045;-85
2023/06/25 13:10:52;;;;;;;3.30;2.10;;;;;;;31.15;25.43;99929.34;10414026;28;20056;-83
2023/06/25 13:15:54;;;;;;;3.95;2.28;;;;;;;30.93;25.44;99921.88;10412968;28;20655;-84
2023/06/25 13:20:56;;;;;;;3.83;1.85;;;;;;;30.77;25.37;99917.88;10414671;28;20045;-83
2023/06/25 13:26:04;;;;;;;4.10;2.20;;;;;;;30.81;24.45;99910.16;10420558;28;20524;-85
2023/06/25 13:31:07;;;;;;;6.43;2.13;;;;;;;31.28;25.37;99907.59;10409000;28;20052;-83
2023/06/25 13:36:10;;;;;;;2.95;1.80;;;;;;;31.47;25.10;99892.97;10390461;28;20053;-86
2023/06/25 13:41:13;;;;;;;5.10;2.22;;;;;;;31.60;25.06;99899.31;10407909;28;20041;-86
2023/06/25 13:46:27;;;;;;;3.80;2.10;;;;;;;31.17;24.84;99891.31;10420430;28;20056;-86
2023/06/25 13:51:30;;;;;;;4.15;2.30;;;;;;;31.31;25.46;99895.50;10396393;28;20103;-86
2023/06/25 13:56:35;;;;;;;4.28;2.00;;;;;;;31.10;24.50;99888.69;10418321;28;20049;-86
2023/06/25 14:01:40;;;;;;;4.28;2.10;;;;;;;30.87;25.02;99887.66;10352955;28;20056;-86
2023/06/25 14:06:44;;;;;;;5.18;2.53;;;;;;;31.00;25.14;99888.38;10373623;28;20064;-86
2023/06/25 14:11:47;;;;;;;3.20;2.00;;;;;;;30.88;25.33;99875.81;10371225;28;20083;-86
2023/06/25 14:16:49;;;;;;;3.53;1.95;;;;;;;31.14;25.13;99867.44;10371280;28;20081;-86
2023/06/25 14:21:51;;;;;;;4.07;2.20;;;;;;;31.33;24.49;99863.66;10357956;28;20041;-86
2023/06/25 14:26:56;;;;;;;3.67;2.08;;;;;;;31.45;24.42;99853.75;10378097;28;20049;-86
2023/06/25 14:31:58;;;;;;;3.35;1.90;;;;;;;31.77;24.77;99852.47;10366065;28;20046;-85
2023/06/25 14:37:02;;;;;;;3.00;1.88;;;;;;;31.81;24.81;99847.41;10368431;28;20068;-86
2023/06/25 14:42:05;;;;;;;3.25;2.03;;;;;;;31.43;24.49;99834.22;10365399;28;20042;-85
2023/06/25 14:47:10;;;;;;;2.90;1.73;;;;;;;31.55;24.66;99832.41;10368330;28;20056;-86
2023/06/25 14:52:13;;;;;;;3.50;2.20;;;;;;;31.60;24.83;99827.13;10374783;28;20053;-87
2023/06/25 14:57:15;;;;;;;3.30;2.13;;;;;;;31.69;24.96;99836.56;10365772;28;20054;-86
2023/06/25 15:02:18;;;;;;;3.75;2.17;;;;;;;31.58;24.55;99820.31;10368091;28;20049;-85
2023/06/25 15:07:34;;;;;;;3.38;2.10;;;;;;;31.43;24.03;99808.00;10350594;28;20049;-85
2023/06/25 15:12:41;;;;;;;3.50;2.10;;;;;;;31.40;24.51;99805.75;10368741;28;20143;-85
2023/06/25 15:17:47;;;;;;;4.45;2.20;;;;;;;31.50;24.48;99807.13;10373359;28;20064;-85
2023/06/25 15:22:50;;;;;;;3.22;1.98;;;;;;;31.54;24.47;99805.63;10369981;28;20484;-85
2023/06/25 15:27:55;;;;;;;3.65;2.00;;;;;;;31.68;24.14;99799.75;10363705;28;20053;-85
2023/06/25 15:33:05;;;;;;;3.58;2.10;;;;;;;31.48;23.82;99791.09;10366703;28;20099;-85
2023/06/25 15:38:11;;;;;;;3.45;2.05;;;;;;;31.36;23.49;99793.75;10374926;28;20838;-85
2023/06/25 15:43:14;;;;;;;4.10;2.38;;;;;;;31.45;23.83;99783.47;10363395;28;20037;-86
2023/06/25 15:48:17;;;;;;;3.70;2.42;;;;;;;31.13;24.10;99777.44;10366604;28;20116;-85
2023/06/25 15:53:19;;;;;;;3.22;2.05;;;;;;;30.91;25.15;99781.66;10360625;28;20034;-86
2023/06/25 15:58:21;;;;;;;3.97;2.20;;;;;;;31.20;24.96;99780.06;10387608;28;20061;-85
2023/06/25 16:03:25;;;;;;;3.80;2.38;;;;;;;31.14;24.55;99775.56;10379528;28;20471;-86
2023/06/25 16:08:28;;;;;;;3.15;1.95;;;;;;;31.18;24.96;99772.19;10377731;28;20046;-86
2023/06/25 16:13:47;;;;;;;3.45;2.05;;;;;;;31.14;24.63;99775.56;10381299;28;20053;-87
2023/06/25 16:18:50;;;;;;;3.10;2.10;;;;;;;31.06;24.51;99773.19;10382165;28;20041;-87
2023/06/25 16:24:12;;;;;;;4.20;2.35;;;;;;;31.16;24.83;99777.00;10378618;28;20049;-87
2023/06/25 16:29:14;;;;;;;3.90;2.05;;;;;;;31.13;24.89;99769.34;10382214;28;20045;-87
2023/06/25 16:34:21;;;;;;;3.85;2.17;;;;;;;30.82;24.51;99768.69;10384525;28;20722;-87
2023/06/25 16:39:28;;;;;;;4.45;2.47;;;;;;;30.82;24.53;99766.81;10390744;28;20517;-87
2023/06/25 16:44:30;;;;;;;3.78;2.15;;;;;;;30.82;24.71;99761.44;10383666;28;20454;-87
2023/06/25 16:49:41;;;;;;;3.50;2.00;;;;;;;30.60;24.33;99755.63;10382723;28;22004;-87
2023/06/25 16:54:43;;;;;;;2.90;1.90;;;;;;;30.51;24.90;99757.00;10397472;28;20049;-88
2023/06/25 16:59:45;;;;;;;4.18;2.38;;;;;;;30.69;25.15;99750.78;10397231;28;20049;-88
2023/06/25 17:04:48;;;;;;;2.80;1.80;;;;;;;30.76;25.22;99756.09;10407351;28;20102;-90
2023/06/25 17:09:54;;;;;;;5.45;2.30;;;;;;;30.70;25.30;99751.59;10384060;28;20085;-89
2023/06/25 17:14:56;;;;;;;4.20;2.35;;;;;;;30.75;25.74;99744.47;10418339;28;20131;-89
2023/06/25 17:20:00;;;;;;;3.97;2.35;;;;;;;30.80;25.26;99746.50;10421691;28;20073;-89
2023/06/25 17:25:03;;;;;;;4.22;2.25;;;;;;;30.72;25.71;99741.41;10401542;28;20412;-89
2023/06/25 17:30:07;;;;;;;3.92;2.03;;;;;;;30.69;25.88;99745.38;10419817;28;20046;-88
2023/06/25 17:35:16;;;;;;;3.47;2.10;;;;;;;30.68;25.86;99739.13;10419291;28;20064;-88
2023/06/25 17:40:19;;;;;;;3.83;2.22;;;;;;;30.75;25.85;99747.16;10401605;28;20413;-87
2023/06/25 17:45:22;;;;;;;4.28;2.20;;;;;;;30.62;25.97;99747.31;10398760;28;20131;-88
2023/06/25 17:50:24;;;;;;;4.00;2.30;;;;;;;30.51;26.18;99748.91;10425604;28;20041;-91
2023/06/25 17:55:33;;;;;;;4.15;2.30;;;;;;;30.50;26.49;99741.84;10419635;28;20053;-87
2023/06/25 18:00:38;;;;;;;4.07;2.13;;;;;;;30.20;26.66;99742.75;10428450;28;20106;-86
2023/06/25 18:05:41;;;;;;;4.15;2.20;;;;;;;30.21;27.03;99744.44;10417373;28;20498;-86
2023/06/25 18:10:44;;;;;;;4.22;2.28;;;;;;;30.14;27.30;99752.59;10393623;28;20052;-87
2023/06/25 18:15:48;;;;;;;3.80;2.20;;;;;;;29.91;28.15;99744.25;10380021;28;20037;-85
2023/06/25 18:20:52;;;;;;;4.13;2.22;;;;;;;29.72;28.42;99742.56;10396250;28;20083;-86
2023/06/25 18:26:09;;;;;;;4.82;2.50;;;;;;;29.48;29.44;99744.16;10397917;28;20048;-86
2023/06/25 18:31:12;;;;;;;3.55;2.20;;;;;;;29.31;29.33;99744.88;10415468;28;20135;-86
2023/06/25 18:36:17;;;;;;;4.22;2.58;;;;;;;29.15;30.56;99745.41;10410622;28;20084;-86
2023/06/25 18:41:19;;;;;;;3.67;2.22;;;;;;;28.74;30.52;99759.22;10417938;28;20041;-86
2023/06/25 18:46:21;;;;;;;5.20;2.22;;;;;;;28.63;31.22;99749.13;10415110;28;20053;-86
2023/06/25 18:51:25;;;;;;;3.90;2.13;;;;;;;28.47;31.99;99755.78;10398498;28;20042;-85
2023/06/25 18:56:28;;;;;;;4.32;2.60;;;;;;;28.24;32.31;99748.16;10422185;28;20524;-86
2023/06/25 19:01:30;;;;;;;4.53;2.50;;;;;;;27.87;32.73;99740.75;10422790;28;20068;-85
2023/06/25 19:06:35;;;;;;;6.38;2.63;;;;;;;27.73;33.35;99743.66;10384599;28;20055;-84
2023/06/25 19:11:37;;;;;;;4.22;2.55;;;;;;;27.58;34.03;99740.31;10419321;28;20049;-84
2023/06/25 19:16:39;;;;;;;4.47;2.30;;;;;;;27.39;33.96;99748.13;10409873;28;20450;-84
2023/06/25 19:21:41;;;;;;;4.18;2.45;;;;;;;27.11;34.62;99744.75;10409074;28;20120;-84
2023/06/25 19:26:45;;;;;;;5.15;2.70;;;;;;;26.87;35.14;99756.03;10399748;28;20053;-84
2023/06/25 19:31:54;;;;;;;5.30;2.88;;;;;;;26.56;36.68;99761.03;10397136;28;20392;-84
2023/06/25 19:36:57;;;;;;;4.35;2.60;;;;;;;26.13;37.02;99759.47;10399411;28;20156;-84
2023/06/25 19:41:59;;;;;;;4.10;2.50;;;;;;;25.86;37.49;99763.78;10403811;28;20038;-85
2023/06/25 19:47:01;;;;;;;4.72;2.45;;;;;;;25.67;38.21;99759.09;10397902;28;20041;-85
2023/06/25 19:52:03;;;;;;;4.53;2.40;;;;;;;25.35;38.97;99765.78;10421315;28;20626;-85
2023/06/25 19:57:05;;;;;;;4.50;2.60;;;;;;;25.06;39.55;99768.53;10417892;28;20045;-84
2023/06/25 20:02:07;;;;;;;4.47;2.80;;;;;;;24.82;40.04;99764.31;10416447;28;20058;-84
2023/06/25 20:07:09;;;;;;;4.25;2.35;;;;;;;24.57;40.69;99775.47;10383706;28;20049;-86
2023/06/25 20:12:11;;;;;;;4.57;2.67;;;;;;;24.36;41.27;99778.03;10419186;28;20049;-86
2023/06/25 20:17:13;;;;;;;4.28;2.65;;;;;;;24.26;41.62;99779.16;10400397;28;20047;-86
2023/06/25 20:22:15;;;;;;;5.60;2.55;;;;;;;24.13;41.91;99780.78;10400608;28;20079;-86
2023/06/25 20:27:16;;;;;;;4.93;2.50;;;;;;;23.92;42.21;99786.78;10401936;28;20054;-86
2023/06/25 20:32:18;;;;;;;4.75;2.58;;;;;;;23.67;42.86;99782.66;10379914;28;20151;-86
2023/06/25 20:37:20;;;;;;;3.95;2.35;;;;;;;23.44;43.38;99782.66;10381171;28;20510;-86
2023/06/25 20:42:22;;;;;;;4.57;2.70;;;;;;;23.23;43.71;99789.59;10419756;28;20037;-86
2023/06/25 20:47:24;;;;;;;4.50;2.58;;;;;;;23.09;44.05;99785.00;10422771;28;20098;-86
2023/06/25 20:52:26;;;;;;;4.75;2.53;;;;;;;22.95;44.32;99791.91;10406611;28;20822;-86
2023/06/25 20:57:28;;;;;;;4.55;2.63;;;;;;;22.80;44.64;99792.81;10426188;28;20537;-86
2023/06/25 21:02:30;;;;;;;5.03;2.80;;;;;;;22.07;45.67;99794.81;10367035;28;20156;-86
2023/06/25 21:07:32;;;;;;;4.43;2.53;;;;;;;21.92;46.43;99801.78;10382448;28;20080;-86
2023/06/25 21:12:34;;;;;;;4.13;2.45;;;;;;;21.81;46.46;99797.63;10383201;28;20068;-86
2023/06/25 21:17:36;;;;;;;4.28;2.58;;;;;;;21.96;46.37;99795.97;10363941;28;20053;-85
2023/06/25 21:22:38;;;;;;;4.28;2.38;;;;;;;21.99;46.58;99795.59;10379442;28;20049;-86
2023/06/25 21:27:40;;;;;;;4.57;2.50;;;;;;;21.96;46.75;99803.94;10381584;28;20400;-86
2023/06/25 21:32:42;;;;;;;3.85;2.50;;;;;;;21.87;47.08;99800.44;10358420;28;20045;-86
2023/06/25 21:37:44;;;;;;;4.57;2.45;;;;;;;21.81;47.03;99819.75;10377174;28;20054;-86
2023/06/25 21:42:46;;;;;;;4.47;2.60;;;;;;;21.70;47.31;99805.94;10378830;28;20041;-86
2023/06/25 21:47:48;;;;;;;3.88;2.30;;;;;;;21.61;47.51;99798.94;10374930;28;20052;-86
2023/06/25 21:52:52;;;;;;;4.28;2.47;;;;;;;21.32;48.08;99810.03;10379059;28;20037;-86
2023/06/25 21:57:54;;;;;;;4.18;2.65;;;;;;;21.06;48.50;99810.09;10379293;28;20045;-86
2023/06/25 22:02:56;;;;;;;5.25;2.60;;;;;;;21.05;48.81;99813.75;10410161;28;20060;-86
2023/06/25 22:07:58;;;;;;;4.22;2.60;;;;;;;20.99;48.95;99811.72;10419604;28;20045;-86
2023/06/25 22:13:01;;;;;;;5.22;2.63;;;;;;;20.75;49.22;99805.47;10421699;28;20033;-87
2023/06/25 22:18:03;;;;;;;4.63;2.63;;;;;;;20.67;49.29;99813.41;10419466;28;20048;-86
2023/06/25 22:23:05;;;;;;;4.97;2.67;;;;;;;20.74;49.40;99815.28;10380223;28;20522;-86
2023/06/25 22:28:07;;;;;;;4.05;2.42;;;;;;;20.76;49.14;99823.94;10418211;28;20055;-86
2023/06/25 22:33:09;;;;;;;3.83;2.47;;;;;;;20.62;49.37;99823.69;10401766;28;20053;-85
2023/06/25 22:38:11;;;;;;;3.85;2.40;;;;;;;20.44;49.84;99818.41;10415184;28;20568;-86
2023/06/25 22:43:13;;;;;;;4.80;2.58;;;;;;;20.26;49.99;99822.94;10416331;28;20401;-85
2023/06/25 22:48:15;;;;;;;4.88;2.67;;;;;;;20.12;50.38;99819.03;10400360;28;20191;-86
2023/06/25 22:53:16;;;;;;;5.88;2.90;;;;;;;20.10;50.34;99817.50;10398731;28;20042;-86
2023/06/25 22:58:18;;;;;;;4.57;2.58;;;;;;;20.18;50.19;99810.44;10398470;28;20054;-86
2023/06/25 23:03:20;;;;;;;4.18;2.58;;;;;;;20.14;50.59;99821.53;10416539;28;20049;-85
2023/06/25 23:08:22;;;;;;;5.63;2.90;;;;;;;19.88;50.81;99813.53;10416822;28;20049;-85
2023/06/25 23:13:24;;;;;;;4.35;2.42;;;;;;;19.85;51.04;99813.84;10417086;28;20045;-85
2023/06/25 23:18:26;;;;;;;4.85;2.72;;;;;;;19.77;51.19;99813.72;10419029;28;20052;-85
2023/06/25 23:23:28;;;;;;;4.85;2.60;;;;;;;19.80;51.21;99807.28;10417581;28;20047;-86
2023/06/25 23:28:31;;;;;;;4.85;2.65;;;;;;;19.65;51.23;99808.81;10383993;28;20568;-86